Time;durP1;ratioP1;P1;durP2;ratioP2;P2;SDS_P1;SDS_P2;PMS_P1;PMS_P2;Temp;Humidity;BMP_temperature;BMP_pressure;BME280_temperature;BME280_humidity;BME280_pressure;Samples;Min_cycle;Max_cycle;Signal;HPM_P1;HPM_P2
2021/10/15 00:02:18;;;;;;;;;23.25;21.50;;;;;;;;5011927;28;51002;-62
2021/10/15 00:04:43;;;;;;;;;23.50;22.25;;;;;;;;5001420;28;51082;-63
2021/10/15 00:07:08;;;;;;;;;25.00;25.00;;;;;;;;5010163;28;51136;-62
2021/10/15 00:09:34;;;;;;;;;27.25;24.25;;;;;;;;5011233;28;51157;-63
2021/10/15 00:11:59;;;;;;;;;25.75;24.25;;;;;;;;5012178;28;51251;-62
2021/10/15 00:14:24;;;;;;;;;27.00;26.00;;;;;;;;5006266;28;52791;-63
2021/10/15 00:16:50;;;;;;;;;29.00;27.25;;;;;;;;5011740;28;50934;-64
2021/10/15 00:19:15;;;;;;;;;31.00;29.00;;;;;;;;5010516;28;51576;-63
2021/10/15 00:21:40;;;;;;;;;21.50;20.50;;;;;;;;5012353;28;51220;-63
2021/10/15 00:24:05;;;;;;;;;28.25;24.75;;;;;;;;5011497;28;51036;-63
2021/10/15 00:26:30;;;;;;;;;26.50;26.00;;;;;;;;5008334;28;51218;-63
2021/10/15 00:28:56;;;;;;;;;28.00;27.00;;;;;;;;5011235;28;51064;-63
2021/10/15 00:31:21;;;;;;;;;29.75;26.75;;;;;;;;5011008;28;51170;-63
2021/10/15 00:33:46;;;;;;;;;28.25;26.50;;;;;;;;5011884;28;51016;-63
2021/10/15 00:36:11;;;;;;;;;31.75;28.75;;;;;;;;5010892;28;51073;-61
2021/10/15 00:38:36;;;;;;;;;25.25;24.00;;;;;;;;5012184;28;50827;-62
2021/10/15 00:41:02;;;;;;;;;27.25;26.25;;;;;;;;5011371;28;51061;-62
2021/10/15 00:43:27;;;;;;;;;24.75;24.75;;;;;;;;5011731;28;51195;-63
2021/10/15 00:45:52;;;;;;;;;27.00;27.00;;;;;;;;5011833;28;51117;-64
2021/10/15 00:48:17;;;;;;;;;25.25;23.25;;;;;;;;5011100;28;51097;-63
2021/10/15 00:50:44;;;;;;;;;25.75;24.50;;;;;;;;5012379;28;51221;-62
2021/10/15 00:53:10;;;;;;;;;24.75;24.25;;;;;;;;5011925;28;52209;-62
2021/10/15 00:55:35;;;;;;;;;28.50;25.50;;;;;;;;5010534;28;51260;-62
2021/10/15 00:58:01;;;;;;;;;24.50;23.75;;;;;;;;5007270;28;51469;-62
2021/10/15 01:00:26;;;;;;;;;25.75;25.00;;;;;;;;5010652;28;51091;-63
2021/10/15 01:02:51;;;;;;;;;23.75;22.50;;;;;;;;5013621;28;51869;-61
2021/10/15 01:05:17;;;;;;;;;24.50;24.00;;;;;;;;4976049;28;51336;-62
2021/10/15 01:07:42;;;;;;;;;26.00;23.50;;;;;;;;5011308;28;51126;-62
2021/10/15 01:10:07;;;;;;;;;22.25;20.00;;;;;;;;5011415;28;51227;-62
2021/10/15 01:12:34;;;;;;;;;20.75;19.75;;;;;;;;5011597;28;51378;-62
2021/10/15 01:14:59;;;;;;;;;19.50;19.50;;;;;;;;5005071;28;51202;-63
2021/10/15 01:17:24;;;;;;;;;21.00;18.25;;;;;;;;5013612;28;51180;-64
2021/10/15 01:19:53;;;;;;;;;20.75;20.75;;;;;;;;5015102;28;51276;-63
2021/10/15 01:22:18;;;;;;;;;21.00;18.25;;;;;;;;5009441;28;51148;-63
2021/10/15 01:24:43;;;;;;;;;25.75;23.25;;;;;;;;5012287;28;50886;-62
2021/10/15 01:27:09;;;;;;;;;22.00;21.25;;;;;;;;5009311;28;51054;-62
2021/10/15 01:29:35;;;;;;;;;20.75;19.00;;;;;;;;5015005;28;51184;-62
2021/10/15 01:32:00;;;;;;;;;22.00;19.25;;;;;;;;5014846;28;51533;-62
2021/10/15 01:34:25;;;;;;;;;26.00;24.50;;;;;;;;5012850;28;51121;-62
2021/10/15 01:36:51;;;;;;;;;20.75;18.75;;;;;;;;5004593;28;51170;-61
2021/10/15 01:39:16;;;;;;;;;24.75;23.00;;;;;;;;5008660;28;51470;-61
2021/10/15 01:41:41;;;;;;;;;19.25;18.25;;;;;;;;5004615;28;51872;-63
2021/10/15 01:44:06;;;;;;;;;24.00;24.00;;;;;;;;5007742;28;51156;-62
2021/10/15 01:46:32;;;;;;;;;21.50;21.25;;;;;;;;4996956;28;50989;-63
2021/10/15 01:48:57;;;;;;;;;25.50;24.50;;;;;;;;5010174;28;51189;-63
2021/10/15 01:51:22;;;;;;;;;18.00;18.00;;;;;;;;4995862;28;53047;-62
2021/10/15 01:53:47;;;;;;;;;15.25;14.50;;;;;;;;5002922;28;50932;-63
2021/10/15 01:56:12;;;;;;;;;23.25;22.75;;;;;;;;5013835;28;51192;-63
2021/10/15 01:58:38;;;;;;;;;25.00;23.75;;;;;;;;5008167;28;51258;-63
2021/10/15 02:01:03;;;;;;;;;20.75;19.25;;;;;;;;5013723;28;52135;-63
2021/10/15 02:03:28;;;;;;;;;24.25;23.50;;;;;;;;5007637;28;51139;-63
2021/10/15 02:05:53;;;;;;;;;21.50;20.25;;;;;;;;5014506;28;51134;-62
2021/10/15 02:08:18;;;;;;;;;25.75;25.00;;;;;;;;5004350;28;51025;-62
2021/10/15 02:10:44;;;;;;;;;18.00;17.25;;;;;;;;5012423;28;52765;-62
2021/10/15 02:13:09;;;;;;;;;19.00;18.75;;;;;;;;4996495;28;51136;-62
2021/10/15 02:15:34;;;;;;;;;19.75;19.75;;;;;;;;4996764;28;51070;-62
2021/10/15 02:18:00;;;;;;;;;24.25;24.00;;;;;;;;5007245;28;51279;-62
2021/10/15 02:20:25;;;;;;;;;20.00;19.75;;;;;;;;5007959;28;51085;-62
2021/10/15 02:22:51;;;;;;;;;23.00;21.25;;;;;;;;5012862;28;51403;-62
2021/10/15 02:25:17;;;;;;;;;20.25;19.25;;;;;;;;5014030;28;50915;-62
2021/10/15 02:27:42;;;;;;;;;21.75;20.25;;;;;;;;5012098;28;51274;-62
2021/10/15 02:30:09;;;;;;;;;22.75;22.75;;;;;;;;5012405;28;52061;-62
2021/10/15 02:32:34;;;;;;;;;23.25;22.50;;;;;;;;5013877;28;50922;-62
2021/10/15 02:34:59;;;;;;;;;24.25;22.25;;;;;;;;5017275;28;50930;-62
2021/10/15 02:37:24;;;;;;;;;24.75;24.25;;;;;;;;5012984;28;51172;-61
2021/10/15 02:39:50;;;;;;;;;21.00;20.25;;;;;;;;5012359;28;52982;-61
2021/10/15 02:42:15;;;;;;;;;25.00;24.25;;;;;;;;5013874;28;51004;-62
2021/10/15 02:44:41;;;;;;;;;21.00;21.00;;;;;;;;5013623;28;51111;-61
2021/10/15 02:47:06;;;;;;;;;20.50;20.50;;;;;;;;5013037;28;51336;-62
2021/10/15 02:49:31;;;;;;;;;22.75;22.50;;;;;;;;4995044;28;51928;-62
2021/10/15 02:51:56;;;;;;;;;24.50;24.00;;;;;;;;5013785;28;51023;-63
2021/10/15 02:54:22;;;;;;;;;25.00;24.00;;;;;;;;5013430;28;51002;-63
2021/10/15 02:56:47;;;;;;;;;23.50;23.50;;;;;;;;5012443;28;50975;-63
2021/10/15 02:59:12;;;;;;;;;24.50;24.50;;;;;;;;5011437;28;51006;-63
2021/10/15 03:01:37;;;;;;;;;26.00;24.00;;;;;;;;5012642;28;50975;-62
2021/10/15 03:04:02;;;;;;;;;29.50;29.50;;;;;;;;5015226;28;51065;-62
2021/10/15 03:06:28;;;;;;;;;33.25;30.00;;;;;;;;5013170;28;50920;-62
2021/10/15 03:08:53;;;;;;;;;29.00;26.50;;;;;;;;5010279;28;52056;-63
2021/10/15 03:11:18;;;;;;;;;31.00;28.75;;;;;;;;5012004;28;51074;-62
2021/10/15 03:13:44;;;;;;;;;25.75;24.50;;;;;;;;5006011;28;51250;-63
2021/10/15 03:16:09;;;;;;;;;31.00;29.25;;;;;;;;5013430;28;51352;-62
2021/10/15 03:18:34;;;;;;;;;29.25;28.75;;;;;;;;5011850;28;51089;-63
2021/10/15 03:20:59;;;;;;;;;28.00;26.75;;;;;;;;5010335;28;52819;-62
2021/10/15 03:23:25;;;;;;;;;29.75;26.50;;;;;;;;5013088;28;50903;-62
2021/10/15 03:25:50;;;;;;;;;26.50;23.25;;;;;;;;5013239;28;51299;-62
2021/10/15 03:28:15;;;;;;;;;29.50;27.75;;;;;;;;5012310;28;51981;-62
2021/10/15 03:30:40;;;;;;;;;28.00;27.00;;;;;;;;4994791;28;51041;-61
2021/10/15 03:33:06;;;;;;;;;32.00;29.00;;;;;;;;5012927;28;51106;-62
2021/10/15 03:35:31;;;;;;;;;29.25;28.25;;;;;;;;5012520;28;51180;-62
2021/10/15 03:37:57;;;;;;;;;28.25;28.25;;;;;;;;5012716;28;51930;-62
2021/10/15 03:40:22;;;;;;;;;31.00;29.50;;;;;;;;5011372;28;50892;-61
2021/10/15 03:42:47;;;;;;;;;30.00;28.50;;;;;;;;5012876;28;51030;-62
2021/10/15 03:45:12;;;;;;;;;32.00;29.00;;;;;;;;5017839;28;50979;-62
2021/10/15 03:47:38;;;;;;;;;28.25;27.25;;;;;;;;5016126;28;50895;-62
2021/10/15 03:50:04;;;;;;;;;29.50;29.00;;;;;;;;5012159;28;51009;-62
2021/10/15 03:52:29;;;;;;;;;26.50;26.00;;;;;;;;5012684;28;51144;-62
2021/10/15 03:54:54;;;;;;;;;24.75;24.75;;;;;;;;5010300;28;51379;-62
2021/10/15 03:57:19;;;;;;;;;29.50;26.25;;;;;;;;5012411;28;52103;-61
2021/10/15 03:59:45;;;;;;;;;29.75;28.75;;;;;;;;5011689;28;51001;-62
2021/10/15 04:02:10;;;;;;;;;33.75;32.50;;;;;;;;5007775;28;51091;-61
2021/10/15 04:04:35;;;;;;;;;36.75;34.50;;;;;;;;5009929;28;51041;-61
2021/10/15 04:07:00;;;;;;;;;37.75;35.50;;;;;;;;5010656;28;51871;-62
2021/10/15 04:09:25;;;;;;;;;31.75;31.00;;;;;;;;5009609;28;51621;-61
2021/10/15 04:11:51;;;;;;;;;43.50;37.75;;;;;;;;5000327;28;51336;-62
2021/10/15 04:14:16;;;;;;;;;40.25;37.25;;;;;;;;5012570;28;51049;-62
2021/10/15 04:16:41;;;;;;;;;47.75;39.00;;;;;;;;5011635;28;52489;-62
2021/10/15 04:19:06;;;;;;;;;41.75;36.25;;;;;;;;5011271;28;52155;-62
2021/10/15 04:21:32;;;;;;;;;41.00;37.00;;;;;;;;5012481;28;51511;-62
2021/10/15 04:23:57;;;;;;;;;38.75;37.00;;;;;;;;5011952;28;51370;-62
2021/10/15 04:26:22;;;;;;;;;41.00;38.00;;;;;;;;5011520;28;51788;-63
2021/10/15 04:28:47;;;;;;;;;37.50;35.75;;;;;;;;5012440;28;50927;-63
2021/10/15 04:31:13;;;;;;;;;41.25;38.00;;;;;;;;5011743;28;51211;-63
2021/10/15 04:33:38;;;;;;;;;39.50;36.50;;;;;;;;5011212;28;51262;-63
2021/10/15 04:36:03;;;;;;;;;43.25;38.00;;;;;;;;5010937;28;51196;-63
2021/10/15 04:38:28;;;;;;;;;38.00;36.50;;;;;;;;5011935;28;51047;-62
2021/10/15 04:40:54;;;;;;;;;38.75;34.75;;;;;;;;5010734;28;51037;-62
2021/10/15 04:43:19;;;;;;;;;40.00;37.00;;;;;;;;5012328;28;51275;-62
2021/10/15 04:45:44;;;;;;;;;38.75;36.25;;;;;;;;5011004;28;52029;-62
2021/10/15 04:48:09;;;;;;;;;37.75;35.75;;;;;;;;5011572;28;51093;-62
2021/10/15 04:50:37;;;;;;;;;40.75;37.75;;;;;;;;5012149;28;50943;-62
2021/10/15 04:53:06;;;;;;;;;42.00;38.00;;;;;;;;5015555;28;51256;-62
2021/10/15 04:55:32;;;;;;;;;43.50;38.00;;;;;;;;4989656;28;53314;-62
2021/10/15 04:57:58;;;;;;;;;39.75;36.00;;;;;;;;5009860;28;51051;-61
2021/10/15 05:00:24;;;;;;;;;36.50;34.75;;;;;;;;5013972;28;51902;-61
2021/10/15 05:02:51;;;;;;;;;43.50;38.25;;;;;;;;5015194;28;51101;-62
2021/10/15 05:05:19;;;;;;;;;53.50;44.25;;;;;;;;5013898;28;52029;-63
2021/10/15 05:07:44;;;;;;;;;37.25;33.75;;;;;;;;5015235;28;50997;-63
2021/10/15 05:10:10;;;;;;;;;40.25;37.00;;;;;;;;5014428;28;51233;-61
2021/10/15 05:12:35;;;;;;;;;40.50;37.00;;;;;;;;5013202;28;51028;-63
2021/10/15 05:15:00;;;;;;;;;37.50;34.75;;;;;;;;5011823;28;51884;-63
2021/10/15 05:17:25;;;;;;;;;41.00;37.50;;;;;;;;5005473;28;51180;-63
2021/10/15 05:19:51;;;;;;;;;40.25;36.75;;;;;;;;5015591;28;50939;-63
2021/10/15 05:22:16;;;;;;;;;42.00;37.75;;;;;;;;5015824;28;50908;-63
2021/10/15 05:24:41;;;;;;;;;40.25;35.50;;;;;;;;5014773;28;51043;-62
2021/10/15 05:27:06;;;;;;;;;38.25;34.50;;;;;;;;5015418;28;51034;-63
2021/10/15 05:29:32;;;;;;;;;38.00;35.75;;;;;;;;5015422;28;51209;-63
2021/10/15 05:31:57;;;;;;;;;45.00;37.25;;;;;;;;5012721;28;51148;-63
2021/10/15 05:34:22;;;;;;;;;39.00;36.75;;;;;;;;5007464;28;51885;-68
2021/10/15 05:36:47;;;;;;;;;47.75;39.00;;;;;;;;5008213;28;52117;-68
2021/10/15 05:39:13;;;;;;;;;39.75;37.00;;;;;;;;5011097;28;51656;-66
2021/10/15 05:41:38;;;;;;;;;43.75;38.75;;;;;;;;5009899;28;51108;-67
2021/10/15 05:44:03;;;;;;;;;48.00;41.00;;;;;;;;5013150;28;51072;-68
2021/10/15 05:46:28;;;;;;;;;48.50;38.25;;;;;;;;5012485;28;51039;-68
2021/10/15 05:48:54;;;;;;;;;44.00;38.00;;;;;;;;5013338;28;51055;-68
2021/10/15 05:51:19;;;;;;;;;42.00;37.50;;;;;;;;5014011;28;51040;-68
2021/10/15 05:53:45;;;;;;;;;33.75;33.25;;;;;;;;5013414;28;51635;-67
2021/10/15 05:59:03;;;;;;;;;40.00;37.50;;;;;;;;5014063;28;51074;-68
2021/10/15 06:01:28;;;;;;;;;42.00;37.00;;;;;;;;5013710;28;51505;-68
2021/10/15 06:08:06;;;;;;;;;44.25;38.25;;;;;;;;5016210;28;51083;-70
2021/10/15 06:14:44;;;;;;;;;43.25;36.75;;;;;;;;5013148;28;51513;-70
2021/10/15 06:17:16;;;;;;;;;39.75;37.00;;;;;;;;5013383;28;51274;-69
2021/10/15 06:19:44;;;;;;;;;44.25;39.25;;;;;;;;5014293;28;50998;-69
2021/10/15 06:22:11;;;;;;;;;39.75;37.00;;;;;;;;5013937;28;50896;-68
2021/10/15 06:24:36;;;;;;;;;38.00;35.00;;;;;;;;5012896;28;51700;-68
2021/10/15 06:27:01;;;;;;;;;38.00;35.25;;;;;;;;5010750;28;51157;-70
2021/10/15 06:29:26;;;;;;;;;38.75;36.50;;;;;;;;5009386;28;51236;-68
2021/10/15 06:31:52;;;;;;;;;34.25;33.50;;;;;;;;5010401;28;50967;-69
2021/10/15 06:34:18;;;;;;;;;41.25;37.75;;;;;;;;5000271;28;52009;-70
2021/10/15 06:36:43;;;;;;;;;43.00;38.00;;;;;;;;5010345;28;51039;-69
2021/10/15 06:39:08;;;;;;;;;45.50;39.25;;;;;;;;5008629;28;51584;-69
2021/10/15 06:41:34;;;;;;;;;38.25;36.25;;;;;;;;5003813;28;51080;-68
2021/10/15 06:43:59;;;;;;;;;37.00;34.50;;;;;;;;5011377;28;51161;-70
2021/10/15 06:46:24;;;;;;;;;33.75;31.75;;;;;;;;5011086;28;50914;-67
2021/10/15 06:48:49;;;;;;;;;35.75;34.50;;;;;;;;5011991;28;51029;-68
2021/10/15 06:51:15;;;;;;;;;45.25;39.25;;;;;;;;5011818;28;51399;-67
2021/10/15 06:53:40;;;;;;;;;40.75;37.00;;;;;;;;5011684;28;52715;-65
2021/10/15 06:56:05;;;;;;;;;45.75;39.50;;;;;;;;5012998;28;50930;-65
2021/10/15 06:58:34;;;;;;;;;46.25;40.00;;;;;;;;5011003;28;51168;-64
2021/10/15 07:00:59;;;;;;;;;37.00;35.50;;;;;;;;5011664;28;51145;-65
2021/10/15 07:03:24;;;;;;;;;44.50;38.50;;;;;;;;4994216;28;52590;-64
2021/10/15 07:05:49;;;;;;;;;40.50;38.00;;;;;;;;5004608;28;51073;-64
2021/10/15 07:08:14;;;;;;;;;47.75;40.75;;;;;;;;5003428;28;51338;-64
2021/10/15 07:10:40;;;;;;;;;46.25;39.00;;;;;;;;5009749;28;51169;-66
2021/10/15 07:13:05;;;;;;;;;39.50;35.25;;;;;;;;5011485;28;52357;-64
2021/10/15 07:15:30;;;;;;;;;47.50;39.50;;;;;;;;5012106;28;51149;-65
2021/10/15 07:17:56;;;;;;;;;49.75;40.00;;;;;;;;5012781;28;50989;-64
2021/10/15 07:20:23;;;;;;;;;43.00;37.25;;;;;;;;5009749;28;50908;-64
2021/10/15 07:22:48;;;;;;;;;44.75;38.00;;;;;;;;5011395;28;51995;-64
2021/10/15 07:25:13;;;;;;;;;45.00;39.00;;;;;;;;5012863;28;51070;-65
2021/10/15 07:27:39;;;;;;;;;44.25;39.00;;;;;;;;5012872;28;51113;-64
2021/10/15 07:30:05;;;;;;;;;47.50;40.50;;;;;;;;5013268;28;51073;-65
2021/10/15 07:32:31;;;;;;;;;49.00;41.75;;;;;;;;5012772;28;50939;-65
2021/10/15 07:34:56;;;;;;;;;51.00;43.00;;;;;;;;5013175;28;51442;-65
2021/10/15 07:37:21;;;;;;;;;50.25;42.25;;;;;;;;5011022;28;51170;-63
2021/10/15 07:39:47;;;;;;;;;49.25;40.50;;;;;;;;5009435;28;51134;-66
2021/10/15 07:42:12;;;;;;;;;50.25;40.75;;;;;;;;5012203;28;51138;-64
2021/10/15 07:44:37;;;;;;;;;51.25;40.50;;;;;;;;5012509;28;51255;-66
2021/10/15 07:47:02;;;;;;;;;51.75;43.00;;;;;;;;5012951;28;51001;-70
2021/10/15 07:49:28;;;;;;;;;51.25;42.00;;;;;;;;5013051;28;51295;-68
2021/10/15 07:51:53;;;;;;;;;51.50;42.50;;;;;;;;5012355;28;51847;-68
2021/10/15 07:54:18;;;;;;;;;53.25;44.25;;;;;;;;5010830;28;51046;-68
2021/10/15 07:56:43;;;;;;;;;54.25;44.50;;;;;;;;5012598;28;51182;-67
2021/10/15 07:59:09;;;;;;;;;51.00;44.00;;;;;;;;5012556;28;50951;-68
2021/10/15 08:01:34;;;;;;;;;49.75;40.50;;;;;;;;5011841;28;51649;-66
2021/10/15 08:03:59;;;;;;;;;47.25;40.00;;;;;;;;5012536;28;51069;-68
2021/10/15 08:06:25;;;;;;;;;51.50;42.75;;;;;;;;5012012;28;51129;-66
2021/10/15 08:08:51;;;;;;;;;50.50;42.75;;;;;;;;5011589;28;51066;-66
2021/10/15 08:11:17;;;;;;;;;49.75;41.50;;;;;;;;5010605;28;52672;-66
2021/10/15 08:13:42;;;;;;;;;49.50;41.25;;;;;;;;5010381;28;50957;-66
2021/10/15 08:16:07;;;;;;;;;52.00;43.00;;;;;;;;5012481;28;50895;-67
2021/10/15 08:18:32;;;;;;;;;50.25;42.50;;;;;;;;5012105;28;50806;-67
2021/10/15 08:20:58;;;;;;;;;51.25;43.00;;;;;;;;5011758;28;51046;-67
2021/10/15 08:23:24;;;;;;;;;50.75;40.75;;;;;;;;4994245;28;50995;-67
2021/10/15 08:25:50;;;;;;;;;46.25;38.75;;;;;;;;5010865;28;51110;-68
2021/10/15 08:28:15;;;;;;;;;47.75;39.50;;;;;;;;5012364;28;51123;-68
2021/10/15 08:30:40;;;;;;;;;51.75;43.00;;;;;;;;5010157;28;51830;-67
2021/10/15 08:33:06;;;;;;;;;52.50;42.50;;;;;;;;5011224;28;50943;-67
2021/10/15 08:35:31;;;;;;;;;49.25;40.25;;;;;;;;5012024;28;50985;-67
2021/10/15 08:37:57;;;;;;;;;51.50;43.00;;;;;;;;5012070;28;51224;-69
2021/10/15 08:40:22;;;;;;;;;51.50;43.25;;;;;;;;5007114;28;51999;-68
2021/10/15 08:42:49;;;;;;;;;51.50;43.50;;;;;;;;5011829;28;51073;-67
2021/10/15 08:45:15;;;;;;;;;49.25;42.00;;;;;;;;5011722;28;51085;-66
2021/10/15 08:47:40;;;;;;;;;52.50;44.00;;;;;;;;5011794;28;51061;-66
2021/10/15 08:50:05;;;;;;;;;53.00;44.25;;;;;;;;5011671;28;51779;-66
2021/10/15 08:52:31;;;;;;;;;48.50;41.00;;;;;;;;5011782;28;50914;-66
2021/10/15 08:54:56;;;;;;;;;51.25;43.00;;;;;;;;5011120;28;51123;-66
2021/10/15 08:57:21;;;;;;;;;51.75;43.25;;;;;;;;5011919;28;51121;-67
2021/10/15 08:59:48;;;;;;;;;49.25;40.50;;;;;;;;5011307;28;51802;-66
2021/10/15 09:02:16;;;;;;;;;52.00;42.75;;;;;;;;5011725;28;50963;-67
2021/10/15 09:04:48;;;;;;;;;50.75;42.75;;;;;;;;5011706;28;51322;-67
2021/10/15 09:07:14;;;;;;;;;47.25;41.00;;;;;;;;5011958;28;51159;-67
2021/10/15 09:09:40;;;;;;;;;42.00;37.50;;;;;;;;5010670;28;51366;-67
2021/10/15 09:12:10;;;;;;;;;41.75;36.25;;;;;;;;5011638;28;50868;-67
2021/10/15 09:14:37;;;;;;;;;40.00;35.00;;;;;;;;5011495;28;51122;-66
2021/10/15 09:17:02;;;;;;;;;27.75;27.75;;;;;;;;5011699;28;50785;-67
2021/10/15 09:19:46;;;;;;;;;34.25;32.50;;;;;;;;5011105;28;51947;-66
2021/10/15 09:22:13;;;;;;;;;31.25;30.75;;;;;;;;5010706;28;51104;-67
2021/10/15 09:24:50;;;;;;;;;32.50;29.75;;;;;;;;5011220;28;50872;-67
2021/10/15 09:27:17;;;;;;;;;35.25;32.00;;;;;;;;5011522;28;50844;-67
2021/10/15 09:29:43;;;;;;;;;32.25;30.25;;;;;;;;5011261;28;51030;-69
2021/10/15 09:32:08;;;;;;;;;34.50;32.00;;;;;;;;5010884;28;51219;-67
2021/10/15 09:34:34;;;;;;;;;33.75;30.25;;;;;;;;5011198;28;51134;-67
2021/10/15 09:36:59;;;;;;;;;29.50;27.25;;;;;;;;5012514;28;50908;-67
2021/10/15 09:39:25;;;;;;;;;33.50;30.00;;;;;;;;5014486;28;51105;-69
2021/10/15 09:41:51;;;;;;;;;28.25;26.50;;;;;;;;5014239;28;51065;-68
2021/10/15 09:44:30;;;;;;;;;24.00;24.00;;;;;;;;5014231;28;51111;-68
2021/10/15 09:47:14;;;;;;;;;28.50;28.00;;;;;;;;5014808;28;51092;-68
2021/10/15 09:49:50;;;;;;;;;28.00;28.00;;;;;;;;5014354;28;51817;-67
2021/10/15 09:52:32;;;;;;;;;25.75;25.00;;;;;;;;5014436;28;51024;-66
2021/10/15 09:54:58;;;;;;;;;31.00;29.50;;;;;;;;5010309;28;51041;-66
2021/10/15 09:57:28;;;;;;;;;28.75;28.50;;;;;;;;5013777;28;51077;-68
2021/10/15 09:59:53;;;;;;;;;26.50;24.75;;;;;;;;5013818;28;51153;-66
2021/10/15 10:02:18;;;;;;;;;32.00;30.00;;;;;;;;5013717;28;50963;-67
2021/10/15 10:04:44;;;;;;;;;27.50;26.00;;;;;;;;5014287;28;51044;-67
2021/10/15 10:07:09;;;;;;;;;25.00;24.50;;;;;;;;5013988;28;51358;-68
2021/10/15 10:09:34;;;;;;;;;23.50;22.00;;;;;;;;5013253;28;51513;-67
2021/10/15 10:11:59;;;;;;;;;31.75;28.75;;;;;;;;5014091;28;50950;-68
2021/10/15 10:14:24;;;;;;;;;26.50;25.25;;;;;;;;5013654;28;51107;-69
2021/10/15 10:16:50;;;;;;;;;25.00;24.00;;;;;;;;5014115;28;50946;-68
2021/10/15 10:19:17;;;;;;;;;19.75;19.75;;;;;;;;5013628;28;51728;-68
2021/10/15 10:21:43;;;;;;;;;21.50;21.25;;;;;;;;5013069;28;50877;-67
2021/10/15 10:24:12;;;;;;;;;23.50;23.00;;;;;;;;5013158;28;51154;-68
2021/10/15 10:27:04;;;;;;;;;20.25;19.00;;;;;;;;5013844;28;51293;-68
2021/10/15 10:29:29;;;;;;;;;26.50;26.50;;;;;;;;4980276;28;52447;-68
2021/10/15 10:32:13;;;;;;;;;23.75;23.50;;;;;;;;5012836;28;50976;-67
2021/10/15 10:34:38;;;;;;;;;25.00;23.50;;;;;;;;5013331;28;50846;-68
2021/10/15 10:37:05;;;;;;;;;26.50;26.50;;;;;;;;5013230;28;50840;-67
2021/10/15 10:39:30;;;;;;;;;28.00;27.50;;;;;;;;5012685;28;51354;-68
2021/10/15 10:42:14;;;;;;;;;27.00;26.50;;;;;;;;5012828;28;50880;-67
2021/10/15 10:44:48;;;;;;;;;27.75;26.75;;;;;;;;5012763;28;50899;-67
2021/10/15 10:47:18;;;;;;;;;28.75;26.00;;;;;;;;5013057;28;51106;-67
2021/10/15 10:50:02;;;;;;;;;30.25;29.75;;;;;;;;5011651;28;51125;-67
2021/10/15 10:52:28;;;;;;;;;33.75;30.50;;;;;;;;5012852;28;51129;-68
2021/10/15 10:54:53;;;;;;;;;29.50;29.25;;;;;;;;5012716;28;51071;-67
2021/10/15 10:57:23;;;;;;;;;25.50;25.00;;;;;;;;5013147;28;51252;-67
2021/10/15 10:59:51;;;;;;;;;25.00;24.75;;;;;;;;5012663;28;50992;-68
2021/10/15 11:02:19;;;;;;;;;22.50;22.00;;;;;;;;5012567;28;50833;-68
2021/10/15 11:04:44;;;;;;;;;23.25;22.50;;;;;;;;5012521;28;51042;-68
2021/10/15 11:07:21;;;;;;;;;24.50;22.50;;;;;;;;5012962;28;50956;-68
2021/10/15 11:09:58;;;;;;;;;27.50;24.75;;;;;;;;5011971;28;51806;-68
2021/10/15 11:12:27;;;;;;;;;29.00;24.75;;;;;;;;5012539;28;50994;-68
2021/10/15 11:14:55;;;;;;;;;22.75;22.25;;;;;;;;4999743;28;51217;-68
2021/10/15 11:17:26;;;;;;;;;24.00;23.00;;;;;;;;5012912;28;51093;-68
2021/10/15 11:20:08;;;;;;;;;21.00;20.00;;;;;;;;5012063;28;51867;-68
2021/10/15 11:22:33;;;;;;;;;22.25;19.75;;;;;;;;5012341;28;50859;-69
2021/10/15 11:24:59;;;;;;;;;23.25;20.00;;;;;;;;5012310;28;51354;-69
2021/10/15 11:27:24;;;;;;;;;21.00;20.75;;;;;;;;5012701;28;50871;-69
2021/10/15 11:29:54;;;;;;;;;20.00;19.50;;;;;;;;5012075;28;51715;-69
2021/10/15 11:32:29;;;;;;;;;17.00;16.00;;;;;;;;5011945;28;51176;-68
2021/10/15 11:35:03;;;;;;;;;24.50;24.25;;;;;;;;5011833;28;51012;-68
2021/10/15 11:37:43;;;;;;;;;24.25;22.50;;;;;;;;5011977;28;51108;-69
2021/10/15 11:40:13;;;;;;;;;22.50;22.25;;;;;;;;5011564;28;51999;-69
2021/10/15 11:42:38;;;;;;;;;26.50;25.00;;;;;;;;5012441;28;51072;-68
2021/10/15 11:45:19;;;;;;;;;20.25;20.25;;;;;;;;5011613;28;50991;-69
2021/10/15 11:47:55;;;;;;;;;20.50;20.50;;;;;;;;5012059;28;50833;-68
2021/10/15 11:50:52;;;;;;;;;25.25;25.00;;;;;;;;5011104;28;51688;-69
2021/10/15 11:53:19;;;;;;;;;13.00;12.33;;;;;;;;4988776;28;51312;-68
2021/10/15 11:55:45;;;;;;;;;17.33;15.67;;;;;;;;5011951;28;51008;-69
2021/10/15 11:58:29;;;;;;;;;19.00;17.50;;;;;;;;5011617;28;51027;-69
2021/10/15 12:01:03;;;;;;;;;19.00;17.00;;;;;;;;5010975;28;51857;-68
2021/10/15 12:03:28;;;;;;;;;19.00;19.00;;;;;;;;5011614;28;51079;-68
2021/10/15 12:05:54;;;;;;;;;18.00;18.00;;;;;;;;5011368;28;51094;-68
2021/10/15 12:08:20;;;;;;;;;20.50;19.75;;;;;;;;5011479;28;51157;-68
2021/10/15 12:10:45;;;;;;;;;20.25;19.00;;;;;;;;5011542;28;51895;-69
2021/10/15 12:13:11;;;;;;;;;20.75;20.75;;;;;;;;5011858;28;51012;-68
2021/10/15 12:15:36;;;;;;;;;18.67;17.67;;;;;;;;5011916;28;50940;-68
2021/10/15 12:18:08;;;;;;;;;16.25;16.25;;;;;;;;5011859;28;50829;-68
2021/10/15 12:20:33;;;;;;;;;18.67;18.67;;;;;;;;5011835;28;52027;-68
2021/10/15 12:23:02;;;;;;;;;13.67;13.33;;;;;;;;5011349;28;50967;-69
2021/10/15 12:25:28;;;;;;;;;68.00;54.50;;;;;;;;5011121;28;50952;-68
2021/10/15 12:27:53;;;;;;;;;23.25;23.25;;;;;;;;5011977;28;50971;-68
2021/10/15 12:30:22;;;;;;;;;22.00;20.50;;;;;;;;5011424;28;52231;-69
2021/10/15 12:32:47;;;;;;;;;18.00;17.25;;;;;;;;5011363;28;51090;-69
2021/10/15 12:35:13;;;;;;;;;15.33;15.33;;;;;;;;5011361;28;51224;-67
2021/10/15 12:37:51;;;;;;;;;24.25;23.50;;;;;;;;5011296;28;51136;-66
2021/10/15 12:40:24;;;;;;;;;20.75;19.25;;;;;;;;5004701;28;51099;-66
2021/10/15 12:42:59;;;;;;;;;21.00;19.25;;;;;;;;5010778;28;50983;-67
2021/10/15 12:45:35;;;;;;;;;24.00;21.75;;;;;;;;5011079;28;51075;-66
2021/10/15 12:48:02;;;;;;;;;20.75;19.25;;;;;;;;5011609;28;51102;-66
2021/10/15 12:50:29;;;;;;;;;20.50;20.00;;;;;;;;5010716;28;51831;-68
2021/10/15 12:52:54;;;;;;;;;17.00;17.00;;;;;;;;5008179;28;50987;-66
2021/10/15 12:55:24;;;;;;;;;19.00;17.75;;;;;;;;5009724;28;51327;-66
2021/10/15 12:57:51;;;;;;;;;17.50;16.25;;;;;;;;5003419;28;51063;-67
2021/10/15 13:00:23;;;;;;;;;19.00;18.25;;;;;;;;5010288;28;52270;-65
2021/10/15 13:02:59;;;;;;;;;17.00;16.50;;;;;;;;5010732;28;51157;-67
2021/10/15 13:05:26;;;;;;;;;17.50;16.00;;;;;;;;5010448;28;50915;-68
2021/10/15 13:07:53;;;;;;;;;13.75;13.00;;;;;;;;5009904;28;50961;-68
2021/10/15 13:10:19;;;;;;;;;16.25;14.00;;;;;;;;5010370;28;50954;-68
2021/10/15 13:12:45;;;;;;;;;13.75;13.75;;;;;;;;5013034;28;50932;-68
2021/10/15 13:15:11;;;;;;;;;14.75;14.00;;;;;;;;5014164;28;51135;-68
2021/10/15 13:17:37;;;;;;;;;13.25;12.50;;;;;;;;5013700;28;51092;-67
2021/10/15 13:20:03;;;;;;;;;14.75;13.75;;;;;;;;5014248;28;52628;-62
2021/10/15 13:22:28;;;;;;;;;13.75;13.75;;;;;;;;5013674;28;51116;-63
2021/10/15 13:24:54;;;;;;;;;14.50;13.50;;;;;;;;5014211;28;51009;-61
2021/10/15 13:27:19;;;;;;;;;13.00;13.00;;;;;;;;5014122;28;51274;-62
2021/10/15 13:29:44;;;;;;;;;13.50;12.50;;;;;;;;5013768;28;50997;-62
2021/10/15 13:32:09;;;;;;;;;18.00;17.75;;;;;;;;5013815;28;50974;-61
2021/10/15 13:34:35;;;;;;;;;11.33;11.33;;;;;;;;4996175;28;51211;-62
2021/10/15 13:37:04;;;;;;;;;12.00;11.00;;;;;;;;5014037;28;51043;-62
2021/10/15 13:39:31;;;;;;;;;12.00;11.00;;;;;;;;5013441;28;52678;-62
2021/10/15 13:47:03;;;;;;;;;14.00;12.75;;;;;;;;5004157;28;50911;-62
2021/10/15 13:49:48;;;;;;;;;12.50;12.00;;;;;;;;5005615;28;51621;-63
2021/10/15 13:52:14;;;;;;;;;11.25;11.25;;;;;;;;5020709;28;51156;-62
2021/10/15 13:54:40;;;;;;;;;13.00;12.33;;;;;;;;5013419;28;50890;-62
2021/10/15 13:57:08;;;;;;;;;11.00;11.00;;;;;;;;5013769;28;50973;-64
2021/10/15 13:59:40;;;;;;;;;14.50;13.50;;;;;;;;5013111;28;51793;-62
2021/10/15 14:02:08;;;;;;;;;11.00;10.67;;;;;;;;5013231;28;51116;-63
2021/10/15 14:04:38;;;;;;;;;12.50;12.00;;;;;;;;5013836;28;51147;-63
2021/10/15 14:07:04;;;;;;;;;9.75;9.25;;;;;;;;5014003;28;51122;-62
2021/10/15 14:09:30;;;;;;;;;14.33;13.00;;;;;;;;5013131;28;51900;-63
2021/10/15 14:11:55;;;;;;;;;10.67;10.67;;;;;;;;5013162;28;50950;-63
2021/10/15 14:14:20;;;;;;;;;13.00;12.25;;;;;;;;5013674;28;51047;-63
2021/10/15 14:16:45;;;;;;;;;11.25;10.00;;;;;;;;5014032;28;51440;-63
2021/10/15 14:19:11;;;;;;;;;8.00;7.00;;;;;;;;5013751;28;51927;-63
2021/10/15 14:21:40;;;;;;;;;10.00;9.67;;;;;;;;5013298;28;50895;-63
2021/10/15 14:24:05;;;;;;;;;8.33;7.67;;;;;;;;5011693;28;51141;-63
2021/10/15 14:26:31;;;;;;;;;8.67;8.67;;;;;;;;5013595;28;51044;-63
2021/10/15 14:28:56;;;;;;;;;8.00;8.00;;;;;;;;5013032;28;51607;-63
2021/10/15 14:31:21;;;;;;;;;10.00;9.33;;;;;;;;5012965;28;50978;-63
2021/10/15 14:33:46;;;;;;;;;8.33;8.33;;;;;;;;5013478;28;50939;-63